createdAt,value
2022-07-30T00:01:36.001Z,4.80
2022-07-30T00:04:05.143Z,4.15
2022-07-30T00:06:33.768Z,5.10
2022-07-30T00:09:02.413Z,5.88
2022-07-30T00:11:32.398Z,4.97
2022-07-30T00:14:00.973Z,4.40
2022-07-30T00:16:29.669Z,4.40
2022-07-30T00:18:58.404Z,8.35
2022-07-30T00:21:36.364Z,4.38
2022-07-30T00:24:08.934Z,6.28
2022-07-30T00:26:39.105Z,5.47
2022-07-30T00:29:07.756Z,5.75
2022-07-30T00:31:36.390Z,7.75
2022-07-30T00:34:05.089Z,5.90
2022-07-30T00:36:33.775Z,4.55
2022-07-30T00:39:02.353Z,4.43
2022-07-30T00:41:30.939Z,4.88
2022-07-30T00:44:01.101Z,4.78
2022-07-30T00:46:30.007Z,5.22
2022-07-30T00:48:58.626Z,5.13
2022-07-30T00:51:27.233Z,6.35
2022-07-30T00:53:55.807Z,4.82
2022-07-30T00:56:24.415Z,3.95
2022-07-30T00:58:52.973Z,4.30
2022-07-30T01:01:24.369Z,5.38
2022-07-30T01:04:12.401Z,4.38
2022-07-30T01:06:41.570Z,5.72
2022-07-30T01:09:10.081Z,4.80
2022-07-30T01:11:39.999Z,6.30
2022-07-30T01:14:10.060Z,4.90
2022-07-30T01:16:42.711Z,5.05
2022-07-30T01:19:40.225Z,4.25
2022-07-30T01:22:15.389Z,6.00
2022-07-30T01:24:48.007Z,6.35
2022-07-30T01:27:20.084Z,4.85
2022-07-30T01:29:50.070Z,5.40
2022-07-30T01:32:20.612Z,5.90
2022-07-30T01:34:50.790Z,5.38
2022-07-30T01:37:21.958Z,4.90
2022-07-30T01:39:52.022Z,6.57
2022-07-30T01:42:24.978Z,7.22
2022-07-30T01:44:54.383Z,6.60
2022-07-30T01:47:25.206Z,5.03
2022-07-30T01:49:55.931Z,5.78
2022-07-30T01:52:25.445Z,5.00
2022-07-30T01:54:57.512Z,5.07
2022-07-30T01:57:27.736Z,5.80
2022-07-30T02:00:02.211Z,6.70
2022-07-30T02:02:36.425Z,5.63
2022-07-30T02:05:05.965Z,4.35
2022-07-30T02:07:40.577Z,5.13
2022-07-30T02:10:14.642Z,4.38
2022-07-30T02:12:53.602Z,4.68
2022-07-30T02:15:30.078Z,7.57
2022-07-30T02:18:02.913Z,6.45
2022-07-30T02:20:38.471Z,5.45
2022-07-30T02:23:11.513Z,4.90
2022-07-30T02:25:43.424Z,6.20
2022-07-30T02:28:18.362Z,4.93
2022-07-30T02:30:52.561Z,8.00
2022-07-30T02:33:25.661Z,4.72
2022-07-30T02:35:56.094Z,6.72
2022-07-30T02:38:27.848Z,5.63
2022-07-30T02:40:58.082Z,5.32
2022-07-30T02:43:29.930Z,6.40
2022-07-30T02:46:07.059Z,6.13
2022-07-30T02:49:03.722Z,6.47
2022-07-30T02:51:35.012Z,7.10
2022-07-30T02:54:05.061Z,5.20
2022-07-30T02:56:35.763Z,8.05
2022-07-30T02:59:07.760Z,6.32
2022-07-30T03:01:37.134Z,5.25
2022-07-30T03:04:07.122Z,4.85
2022-07-30T03:06:36.675Z,5.40
2022-07-30T03:09:06.452Z,5.28
2022-07-30T03:11:36.132Z,6.68
2022-07-30T03:14:07.913Z,6.22
2022-07-30T03:16:39.350Z,5.72
2022-07-30T03:19:10.965Z,5.90
2022-07-30T03:21:42.373Z,5.07
2022-07-30T03:24:14.837Z,5.68
2022-07-30T03:26:45.442Z,5.93
2022-07-30T03:29:21.840Z,5.13
2022-07-30T03:31:51.755Z,5.95
2022-07-30T03:34:23.846Z,7.28
2022-07-30T03:36:55.496Z,6.38
2022-07-30T03:39:25.586Z,7.07
2022-07-30T03:41:54.998Z,4.90
2022-07-30T03:44:27.891Z,8.60
2022-07-30T03:46:59.427Z,5.13
2022-07-30T03:49:29.552Z,5.57
2022-07-30T03:51:58.915Z,5.97
2022-07-30T03:54:28.428Z,4.97
2022-07-30T03:57:27.455Z,6.57
2022-07-30T03:59:57.684Z,5.38
2022-07-30T04:02:26.820Z,5.30
2022-07-30T04:05:15.019Z,7.70
2022-07-30T04:07:45.350Z,9.07
2022-07-30T04:10:16.473Z,4.55
2022-07-30T04:13:11.147Z,5.32
2022-07-30T04:16:37.389Z,6.75
2022-07-30T04:18:41.502Z,9.13
2022-07-30T04:21:17.260Z,5.30
2022-07-30T04:24:04.714Z,6.75
2022-07-30T04:26:37.335Z,5.43
2022-07-30T04:29:08.785Z,7.57
2022-07-30T04:31:41.402Z,7.18
2022-07-30T04:34:29.229Z,6.72
2022-07-30T04:36:59.029Z,7.13
2022-07-30T04:39:31.009Z,5.35
2022-07-30T04:41:59.984Z,7.57
2022-07-30T04:44:40.746Z,10.25
2022-07-30T04:47:31.744Z,7.35
2022-07-30T04:50:29.897Z,8.75
2022-07-30T04:53:00.242Z,7.00
2022-07-30T04:55:33.944Z,7.93
2022-07-30T04:58:03.710Z,5.50
2022-07-30T05:00:40.999Z,7.15
2022-07-30T05:03:17.251Z,7.82
2022-07-30T05:05:57.167Z,7.68
2022-07-30T05:08:28.445Z,7.22
2022-07-30T05:11:00.837Z,6.65
2022-07-30T05:13:34.333Z,6.95
2022-07-30T05:16:04.972Z,7.10
2022-07-30T05:18:35.903Z,10.32
2022-07-30T05:21:05.753Z,7.05
2022-07-30T05:23:38.523Z,11.02
2022-07-30T05:26:20.899Z,10.25
2022-07-30T05:28:55.223Z,7.43
2022-07-30T05:31:31.222Z,10.52
2022-07-30T05:34:05.223Z,6.63
2022-07-30T05:36:42.778Z,8.15
2022-07-30T05:39:13.977Z,6.70
2022-07-30T05:42:05.630Z,7.32
2022-07-30T05:44:37.955Z,9.00
2022-07-30T05:47:06.721Z,8.70
2022-07-30T05:49:36.893Z,8.75
2022-07-30T05:52:11.496Z,8.05
2022-07-30T05:54:40.080Z,9.15
2022-07-30T05:57:14.262Z,7.20
2022-07-30T05:59:42.779Z,9.57
2022-07-30T06:02:14.078Z,9.10
2022-07-30T06:05:07.549Z,10.35
2022-07-30T06:07:36.162Z,11.48
2022-07-30T06:10:07.233Z,11.95
2022-07-30T06:12:35.826Z,12.05
2022-07-30T06:15:05.749Z,8.68
2022-07-30T06:17:43.814Z,13.93
2022-07-30T06:20:25.197Z,9.60
2022-07-30T06:23:07.228Z,8.98
2022-07-30T06:25:50.281Z,12.90
2022-07-30T06:31:31.775Z,11.05
2022-07-30T06:34:00.402Z,11.85
2022-07-30T06:36:35.610Z,13.85
2022-07-30T06:39:12.731Z,13.55
2022-07-30T06:42:04.091Z,11.30
2022-07-30T06:44:52.618Z,9.93
2022-07-30T06:47:29.011Z,12.30
2022-07-30T06:49:59.106Z,13.90
2022-07-30T06:52:30.804Z,12.07
2022-07-30T06:54:59.676Z,11.68
2022-07-30T06:57:47.607Z,12.23
2022-07-30T07:00:43.010Z,12.35
2022-07-30T07:03:14.288Z,13.00
2022-07-30T07:05:43.045Z,11.52
2022-07-30T07:08:13.801Z,11.25
2022-07-30T07:10:48.557Z,11.40
2022-07-30T07:13:26.222Z,11.35
2022-07-30T07:15:55.356Z,9.95
2022-07-30T07:18:25.530Z,14.50
2022-07-30T07:21:00.006Z,8.85
2022-07-30T07:23:39.819Z,12.15
2022-07-30T07:26:15.633Z,13.45
2022-07-30T07:28:44.335Z,11.35
2022-07-30T07:32:07.381Z,12.02
2022-07-30T07:34:02.497Z,11.95
2022-07-30T07:36:31.533Z,16.42
2022-07-30T07:39:02.295Z,11.30
2022-07-30T07:41:31.477Z,10.70
2022-07-30T07:44:18.858Z,10.13
2022-07-30T07:46:48.304Z,17.10
2022-07-30T07:49:17.196Z,14.18
2022-07-30T07:51:51.822Z,13.20
2022-07-30T07:54:23.554Z,11.15
2022-07-30T07:56:56.829Z,14.15
2022-07-30T07:59:40.935Z,12.23
2022-07-30T08:02:18.001Z,11.45
2022-07-30T08:04:46.876Z,14.35
2022-07-30T08:07:38.498Z,13.18
2022-07-30T08:10:27.209Z,10.18
2022-07-30T08:13:05.253Z,11.45
2022-07-30T08:16:00.666Z,13.65
2022-07-30T08:18:49.776Z,10.38
2022-07-30T08:21:28.970Z,10.02
2022-07-30T08:23:57.549Z,14.52
2022-07-30T08:26:27.582Z,13.27
2022-07-30T08:28:56.832Z,13.13
2022-07-30T08:31:25.548Z,10.88
2022-07-30T08:33:54.310Z,12.80
2022-07-30T08:36:25.959Z,12.50
2022-07-30T08:38:55.642Z,15.65
2022-07-30T08:41:24.977Z,15.90
2022-07-30T08:43:55.682Z,15.10
2022-07-30T08:46:26.526Z,12.57
2022-07-30T08:49:15.625Z,13.77
2022-07-30T08:51:44.532Z,13.07
2022-07-30T08:54:27.464Z,13.05
2022-07-30T08:56:56.032Z,11.98
2022-07-30T09:00:00.119Z,10.63
2022-07-30T09:02:15.583Z,12.25
2022-07-30T09:05:01.785Z,12.60
2022-07-30T09:07:30.907Z,10.80
2022-07-30T09:10:00.672Z,8.68
2022-07-30T09:12:35.541Z,9.50
2022-07-30T09:15:09.471Z,13.23
2022-07-30T09:17:49.372Z,7.95
2022-07-30T09:20:18.849Z,9.88
2022-07-30T09:22:50.010Z,9.43
2022-07-30T09:25:39.634Z,11.95
2022-07-30T09:28:33.238Z,7.78
2022-07-30T09:31:23.995Z,7.70
2022-07-30T09:34:25.804Z,10.38
2022-07-30T09:37:18.897Z,11.35
2022-07-30T09:40:16.140Z,8.15
2022-07-30T09:43:07.574Z,10.52
2022-07-30T09:45:37.507Z,8.52
2022-07-30T09:48:22.639Z,6.00
2022-07-30T09:50:52.515Z,6.53
2022-07-30T09:53:23.059Z,12.15
2022-07-30T09:55:52.210Z,9.52
2022-07-30T09:58:26.556Z,12.27
2022-07-30T10:00:59.520Z,9.10
2022-07-30T10:03:53.126Z,10.73
2022-07-30T10:06:47.807Z,10.02
2022-07-30T10:09:37.910Z,10.93
2022-07-30T10:12:11.346Z,9.02
2022-07-30T10:14:47.285Z,9.45
2022-07-30T10:17:19.921Z,8.55
2022-07-30T10:20:12.318Z,8.13
2022-07-30T10:23:00.149Z,8.05
2022-07-30T10:25:49.326Z,7.53
2022-07-30T10:28:38.813Z,9.38
2022-07-30T10:31:46.823Z,8.05
2022-07-30T10:33:57.991Z,10.90
2022-07-30T10:36:29.253Z,8.23
2022-07-30T10:38:58.570Z,9.75
2022-07-30T10:41:47.605Z,8.45
2022-07-30T10:44:42.479Z,8.50
2022-07-30T10:47:14.631Z,6.97
2022-07-30T10:50:03.480Z,7.55
2022-07-30T10:52:46.550Z,6.43
2022-07-30T10:55:16.164Z,5.20
2022-07-30T10:58:06.042Z,6.03
2022-07-30T11:00:37.473Z,5.57
2022-07-30T11:03:20.901Z,3.97
2022-07-30T11:05:52.522Z,6.97
2022-07-30T11:08:36.951Z,7.90
2022-07-30T11:11:59.346Z,5.78
2022-07-30T11:14:16.270Z,5.45
2022-07-30T11:17:05.857Z,10.00
2022-07-30T11:19:53.322Z,4.45
2022-07-30T11:22:26.518Z,8.43
2022-07-30T11:24:56.621Z,8.43
2022-07-30T11:27:41.318Z,4.70
2022-07-30T11:30:33.706Z,5.22
2022-07-30T11:33:33.349Z,5.57
2022-07-30T11:36:10.460Z,5.68
2022-07-30T11:39:06.920Z,5.55
2022-07-30T11:41:40.859Z,7.15
2022-07-30T11:44:29.968Z,9.77
2022-07-30T11:46:58.762Z,4.60
2022-07-30T11:49:35.333Z,5.78
2022-07-30T11:52:04.701Z,6.03
2022-07-30T11:54:33.531Z,8.65
2022-07-30T11:57:04.798Z,6.20
2022-07-30T11:59:33.578Z,10.35
2022-07-30T12:02:02.608Z,5.40
2022-07-30T12:04:31.487Z,5.70
2022-07-30T12:07:00.454Z,6.90
2022-07-30T12:09:29.702Z,8.02
2022-07-30T12:11:58.707Z,6.13
2022-07-30T12:14:39.684Z,7.82
2022-07-30T12:17:14.867Z,6.30
2022-07-30T12:19:47.893Z,6.47
2022-07-30T12:22:17.067Z,6.78
2022-07-30T12:24:45.678Z,8.45
2022-07-30T12:27:14.235Z,4.57
2022-07-30T12:29:44.269Z,6.40
2022-07-30T12:32:12.948Z,7.53
2022-07-30T12:34:54.558Z,6.38
2022-07-30T12:37:23.416Z,4.60
2022-07-30T12:40:14.385Z,5.65
2022-07-30T12:42:51.738Z,5.60
2022-07-30T12:45:52.315Z,7.85
2022-07-30T12:48:22.148Z,5.65
2022-07-30T12:51:06.741Z,4.65
2022-07-30T12:53:35.917Z,3.42
2022-07-30T12:56:14.596Z,4.53
2022-07-30T12:58:43.517Z,3.20
2022-07-30T13:01:16.104Z,6.32
2022-07-30T13:03:45.477Z,3.67
2022-07-30T13:06:16.530Z,5.95
2022-07-30T13:08:50.102Z,5.53
2022-07-30T13:11:20.320Z,4.63
2022-07-30T13:13:50.090Z,4.00
2022-07-30T13:16:21.344Z,4.68
2022-07-30T13:18:49.933Z,5.70
2022-07-30T13:21:18.519Z,4.45
2022-07-30T13:23:47.121Z,4.55
2022-07-30T13:26:15.708Z,5.32
2022-07-30T13:28:46.424Z,3.78
2022-07-30T13:31:15.093Z,6.30
2022-07-30T13:33:45.364Z,5.10
2022-07-30T13:36:13.971Z,4.95
2022-07-30T13:38:43.586Z,4.43
2022-07-30T13:41:12.241Z,4.85
2022-07-30T13:43:41.242Z,5.93
2022-07-30T13:46:09.936Z,6.93
2022-07-30T13:48:38.748Z,5.03
2022-07-30T13:51:08.782Z,6.28
2022-07-30T13:53:37.580Z,7.03
2022-07-30T13:56:12.408Z,5.63
2022-07-30T13:58:41.673Z,5.47
2022-07-30T14:01:15.823Z,4.47
2022-07-30T14:03:50.040Z,3.30
2022-07-30T14:06:20.927Z,2.85
2022-07-30T14:08:49.594Z,3.30
2022-07-30T14:11:18.329Z,4.05
2022-07-30T14:13:46.945Z,4.78
2022-07-30T14:16:42.263Z,3.17
2022-07-30T14:19:04.069Z,4.50
2022-07-30T14:21:34.502Z,3.38
2022-07-30T14:24:05.046Z,5.43
2022-07-30T14:26:36.778Z,3.80
2022-07-30T14:29:05.552Z,3.55
2022-07-30T14:31:34.547Z,2.38
2022-07-30T14:34:03.468Z,4.93
2022-07-30T14:36:33.531Z,3.92
2022-07-30T14:39:04.150Z,2.72
2022-07-30T14:41:34.826Z,3.45
2022-07-30T14:44:03.874Z,3.88
2022-07-30T14:46:32.619Z,4.32
2022-07-30T14:49:01.227Z,6.35
2022-07-30T14:51:34.508Z,3.72
2022-07-30T14:54:04.963Z,3.95
2022-07-30T14:56:33.540Z,2.38
2022-07-30T14:59:02.085Z,4.03
2022-07-30T15:01:30.891Z,3.85
2022-07-30T15:04:00.113Z,3.33
2022-07-30T15:06:29.225Z,2.95
2022-07-30T15:08:59.072Z,2.40
2022-07-30T15:11:31.122Z,2.42
2022-07-30T15:14:05.133Z,3.85
2022-07-30T15:16:33.856Z,2.90
2022-07-30T15:19:02.456Z,2.47
2022-07-30T15:21:31.003Z,2.67
2022-07-30T15:23:59.807Z,3.65
2022-07-30T15:26:29.970Z,3.03
2022-07-30T15:28:58.661Z,3.38
2022-07-30T15:31:27.255Z,2.70
2022-07-30T15:33:55.821Z,2.58
2022-07-30T15:36:24.362Z,1.95
2022-07-30T15:38:52.945Z,2.95
2022-07-30T15:41:21.780Z,2.03
2022-07-30T15:43:51.705Z,3.30
2022-07-30T15:46:20.486Z,2.45
2022-07-30T15:48:49.126Z,7.13
2022-07-30T15:51:17.773Z,2.30
2022-07-30T15:53:46.308Z,3.08
2022-07-30T15:56:15.621Z,1.67
2022-07-30T15:58:44.223Z,1.52
2022-07-30T16:01:14.303Z,3.65
2022-07-30T16:03:42.893Z,1.50
2022-07-30T16:06:11.489Z,3.92
2022-07-30T16:08:40.078Z,1.52
2022-07-30T16:11:11.039Z,1.70
2022-07-30T16:13:39.814Z,3.08
2022-07-30T16:16:08.363Z,5.05
2022-07-30T16:18:38.343Z,4.13
2022-07-30T16:21:06.926Z,1.92
2022-07-30T16:23:36.982Z,2.28
2022-07-30T16:26:09.647Z,5.57
2022-07-30T16:28:39.406Z,2.85
2022-07-30T16:31:08.724Z,2.60
2022-07-30T16:33:39.399Z,2.40
2022-07-30T16:36:26.472Z,2.30
2022-07-30T16:38:55.086Z,1.67
2022-07-30T16:41:23.657Z,2.95
2022-07-30T16:43:52.958Z,2.00
2022-07-30T16:46:21.769Z,2.45
2022-07-30T16:48:51.934Z,2.83
2022-07-30T16:51:20.995Z,2.60
2022-07-30T16:53:49.580Z,2.80
2022-07-30T16:56:18.545Z,2.00
2022-07-30T16:58:47.057Z,1.92
2022-07-30T17:01:15.657Z,2.53
2022-07-30T17:03:44.326Z,1.70
2022-07-30T17:06:14.268Z,1.90
2022-07-30T17:08:42.817Z,2.67
2022-07-30T17:11:15.649Z,3.55
2022-07-30T17:14:00.781Z,3.00
2022-07-30T17:16:29.582Z,2.92
2022-07-30T17:18:58.130Z,2.25
2022-07-30T17:21:28.385Z,3.15
2022-07-30T17:23:56.959Z,2.10
2022-07-30T17:26:25.531Z,4.35
2022-07-30T17:28:54.038Z,2.58
2022-07-30T17:31:22.599Z,2.20
2022-07-30T17:33:51.177Z,2.00
2022-07-30T17:36:19.880Z,5.53
2022-07-30T17:38:49.802Z,4.10
2022-07-30T17:41:18.293Z,2.60
2022-07-30T17:43:46.850Z,2.83
2022-07-30T17:46:15.521Z,4.00
2022-07-30T17:48:44.340Z,1.95
2022-07-30T17:51:12.918Z,3.25
2022-07-30T17:53:41.632Z,3.40
2022-07-30T17:56:26.517Z,3.08
2022-07-30T17:58:55.952Z,4.75
2022-07-30T18:01:24.629Z,1.83
2022-07-30T18:03:54.391Z,4.70
2022-07-30T18:06:22.990Z,4.70
2022-07-30T18:08:51.921Z,3.25
2022-07-30T18:11:21.810Z,3.13
2022-07-30T18:13:50.329Z,4.72
2022-07-30T18:16:18.891Z,3.97
2022-07-30T18:18:47.434Z,3.47
2022-07-30T18:21:16.018Z,3.30
2022-07-30T18:23:44.568Z,5.18
2022-07-30T18:26:13.241Z,31.48
2022-07-30T18:28:43.368Z,3.95
2022-07-30T18:31:11.905Z,4.75
2022-07-30T18:33:40.445Z,2.95
2022-07-30T18:36:11.048Z,3.88
2022-07-30T18:38:39.757Z,7.68
2022-07-30T18:41:08.293Z,2.53
2022-07-30T18:43:48.140Z,4.40
2022-07-30T18:46:18.745Z,2.58
2022-07-30T18:48:48.469Z,2.85
2022-07-30T18:51:18.572Z,2.13
2022-07-30T18:53:47.196Z,3.22
2022-07-30T18:56:15.838Z,2.35
2022-07-30T18:58:44.429Z,2.13
2022-07-30T19:01:13.681Z,3.88
2022-07-30T19:03:43.717Z,3.00
2022-07-30T19:06:12.372Z,4.97
2022-07-30T19:08:40.900Z,2.97
2022-07-30T19:11:09.581Z,2.83
2022-07-30T19:13:39.890Z,4.05
2022-07-30T19:16:09.838Z,2.50
2022-07-30T19:18:38.406Z,4.22
2022-07-30T19:21:12.395Z,4.55
2022-07-30T19:23:42.517Z,3.92
2022-07-30T19:26:11.058Z,2.88
2022-07-30T19:28:39.710Z,3.00
2022-07-30T19:31:08.481Z,4.55
2022-07-30T19:33:37.129Z,3.83
2022-07-30T19:36:06.193Z,2.58
2022-07-30T19:38:37.237Z,3.55
2022-07-30T19:41:05.946Z,3.50
2022-07-30T19:43:34.490Z,4.10
2022-07-30T19:46:05.623Z,2.42
2022-07-30T19:48:37.158Z,2.63
2022-07-30T19:51:15.674Z,4.43
2022-07-30T19:53:50.360Z,2.30
2022-07-30T19:56:20.770Z,3.45
2022-07-30T19:58:52.210Z,3.08
2022-07-30T20:01:22.967Z,2.50
2022-07-30T20:03:51.606Z,2.25
2022-07-30T20:06:20.399Z,3.00
2022-07-30T20:08:51.460Z,2.95
2022-07-30T20:11:36.302Z,2.92
2022-07-30T20:14:05.368Z,4.28
2022-07-30T20:16:35.445Z,3.28
2022-07-30T20:19:04.523Z,3.38
2022-07-30T20:22:06.981Z,3.42
2022-07-30T20:24:24.253Z,3.40
2022-07-30T20:26:54.250Z,3.85
2022-07-30T20:29:23.563Z,6.75
2022-07-30T20:31:53.389Z,4.93
2022-07-30T20:34:25.746Z,4.22
2022-07-30T20:36:56.487Z,4.22
2022-07-30T20:39:26.923Z,2.45
2022-07-30T20:42:08.494Z,3.70
2022-07-30T20:44:38.294Z,3.90
2022-07-30T20:47:08.262Z,5.05
2022-07-30T20:49:37.259Z,2.45
2022-07-30T20:52:09.496Z,3.10
2022-07-30T20:54:43.680Z,2.70
2022-07-30T20:57:15.589Z,2.55
2022-07-30T20:59:44.579Z,4.20
2022-07-30T21:02:15.352Z,2.85
2022-07-30T21:04:46.434Z,3.15
2022-07-30T21:07:20.486Z,3.00
2022-07-30T21:09:52.635Z,3.22
2022-07-30T21:12:32.797Z,3.67
2022-07-30T21:15:01.809Z,3.03
2022-07-30T21:17:30.351Z,2.58
2022-07-30T21:19:58.998Z,2.85
2022-07-30T21:22:29.657Z,3.78
2022-07-30T21:24:59.865Z,2.72
2022-07-30T21:27:29.932Z,2.40
2022-07-30T21:29:58.836Z,3.58
2022-07-30T21:32:28.645Z,3.30
2022-07-30T21:34:57.341Z,2.40
2022-07-30T21:37:36.328Z,2.47
2022-07-30T21:40:08.074Z,3.85
2022-07-30T21:42:48.471Z,2.67
2022-07-30T21:45:17.661Z,4.07
2022-07-30T21:47:47.979Z,3.10
2022-07-30T21:50:16.779Z,7.05
2022-07-30T21:52:45.822Z,4.28
2022-07-30T21:55:15.754Z,2.83
2022-07-30T21:57:44.297Z,2.67
2022-07-30T22:00:21.958Z,4.25
2022-07-30T22:02:53.355Z,4.40
2022-07-30T22:05:23.475Z,3.88
2022-07-30T22:08:13.870Z,3.10
2022-07-30T22:10:46.877Z,2.80
2022-07-30T22:13:22.420Z,3.33
2022-07-30T22:15:52.094Z,2.88
2022-07-30T22:18:23.657Z,4.85
2022-07-30T22:20:54.305Z,4.63
2022-07-30T22:23:23.601Z,3.33
2022-07-30T22:25:54.737Z,2.72
2022-07-30T22:28:28.967Z,2.70
2022-07-30T22:30:57.550Z,4.07
2022-07-30T22:33:26.288Z,3.67
2022-07-30T22:35:55.811Z,4.40
2022-07-30T22:38:24.781Z,2.95
2022-07-30T22:40:54.849Z,2.65
2022-07-30T22:43:26.993Z,2.75
2022-07-30T22:46:04.137Z,4.47
2022-07-30T22:48:43.560Z,3.85
2022-07-30T22:51:12.224Z,3.22
2022-07-30T22:54:03.512Z,5.47
2022-07-30T22:56:31.296Z,4.53
2022-07-30T22:59:01.031Z,2.55
2022-07-30T23:01:29.511Z,3.88
2022-07-30T23:04:01.397Z,2.85
2022-07-30T23:06:30.313Z,4.20
2022-07-30T23:08:59.021Z,4.15
2022-07-30T23:11:37.638Z,2.92
2022-07-30T23:14:08.715Z,3.83
2022-07-30T23:16:37.440Z,2.88
2022-07-30T23:19:06.613Z,3.55
2022-07-30T23:21:35.837Z,2.55
2022-07-30T23:24:04.783Z,2.63
2022-07-30T23:26:34.141Z,3.10
2022-07-30T23:29:02.815Z,2.50
2022-07-30T23:31:32.782Z,3.25
2022-07-30T23:34:01.702Z,4.63
2022-07-30T23:36:30.406Z,4.00
2022-07-30T23:38:59.250Z,4.25
2022-07-30T23:41:29.698Z,3.15
2022-07-30T23:43:59.317Z,3.67
2022-07-30T23:46:28.060Z,4.03
2022-07-30T23:48:59.000Z,2.58
2022-07-30T23:51:33.209Z,3.50
2022-07-30T23:54:04.546Z,2.70
2022-07-30T23:56:33.807Z,2.55
2022-07-30T23:59:02.980Z,4.57
